sensor_id;sensor_type;location;lat;lon;timestamp;P1;durP1;ratioP1;P2;durP2;ratioP2
7659;SDS011;3872;47.902;8.162;2024-03-17T00:01:04;4.00;;;1.20;;
7659;SDS011;3872;47.902;8.162;2024-03-17T00:03:33;3.90;;;1.20;;
7659;SDS011;3872;47.902;8.162;2024-03-17T00:06:00;3.90;;;1.20;;
7659;SDS011;3872;47.902;8.162;2024-03-17T00:08:27;3.60;;;1.20;;
7659;SDS011;3872;47.902;8.162;2024-03-17T00:10:53;6.70;;;1.10;;
7659;SDS011;3872;47.902;8.162;2024-03-17T00:13:20;4.00;;;1.10;;
7659;SDS011;3872;47.902;8.162;2024-03-17T00:15:46;5.60;;;1.83;;
7659;SDS011;3872;47.902;8.162;2024-03-17T00:18:13;7.53;;;1.50;;
7659;SDS011;3872;47.902;8.162;2024-03-17T00:20:39;4.53;;;1.30;;
7659;SDS011;3872;47.902;8.162;2024-03-17T00:23:09;5.20;;;1.30;;
7659;SDS011;3872;47.902;8.162;2024-03-17T00:25:37;4.10;;;1.33;;
7659;SDS011;3872;47.902;8.162;2024-03-17T00:28:04;3.47;;;1.00;;
7659;SDS011;3872;47.902;8.162;2024-03-17T00:30:30;6.00;;;1.47;;
7659;SDS011;3872;47.902;8.162;2024-03-17T00:32:57;4.17;;;1.37;;
7659;SDS011;3872;47.902;8.162;2024-03-17T00:35:23;6.40;;;1.10;;
7659;SDS011;3872;47.902;8.162;2024-03-17T00:37:51;5.20;;;1.43;;
7659;SDS011;3872;47.902;8.162;2024-03-17T00:40:20;15.63;;;2.13;;
7659;SDS011;3872;47.902;8.162;2024-03-17T00:42:48;3.50;;;1.07;;
7659;SDS011;3872;47.902;8.162;2024-03-17T00:45:14;4.70;;;1.70;;
7659;SDS011;3872;47.902;8.162;2024-03-17T00:47:41;3.90;;;1.37;;
7659;SDS011;3872;47.902;8.162;2024-03-17T00:50:08;4.87;;;1.30;;
7659;SDS011;3872;47.902;8.162;2024-03-17T00:52:36;3.97;;;1.37;;
7659;SDS011;3872;47.902;8.162;2024-03-17T00:55:02;4.70;;;1.40;;
7659;SDS011;3872;47.902;8.162;2024-03-17T00:57:31;5.60;;;1.57;;
7659;SDS011;3872;47.902;8.162;2024-03-17T00:59:58;3.60;;;1.27;;
7659;SDS011;3872;47.902;8.162;2024-03-17T01:02:24;5.60;;;1.50;;
7659;SDS011;3872;47.902;8.162;2024-03-17T01:04:51;3.73;;;1.20;;
7659;SDS011;3872;47.902;8.162;2024-03-17T01:07:16;4.63;;;1.60;;
7659;SDS011;3872;47.902;8.162;2024-03-17T01:09:43;4.27;;;1.27;;
7659;SDS011;3872;47.902;8.162;2024-03-17T01:12:08;6.00;;;1.27;;
7659;SDS011;3872;47.902;8.162;2024-03-17T01:14:37;7.80;;;1.70;;
7659;SDS011;3872;47.902;8.162;2024-03-17T01:17:04;4.63;;;1.70;;
7659;SDS011;3872;47.902;8.162;2024-03-17T01:19:31;7.50;;;1.57;;
7659;SDS011;3872;47.902;8.162;2024-03-17T01:22:00;5.70;;;1.50;;
7659;SDS011;3872;47.902;8.162;2024-03-17T01:24:26;3.90;;;1.50;;
7659;SDS011;3872;47.902;8.162;2024-03-17T01:26:56;3.67;;;1.40;;
7659;SDS011;3872;47.902;8.162;2024-03-17T01:29:22;5.70;;;1.53;;
7659;SDS011;3872;47.902;8.162;2024-03-17T01:31:51;5.60;;;1.60;;
7659;SDS011;3872;47.902;8.162;2024-03-17T01:34:17;4.30;;;1.50;;
7659;SDS011;3872;47.902;8.162;2024-03-17T01:36:44;4.73;;;1.60;;
7659;SDS011;3872;47.902;8.162;2024-03-17T01:39:10;3.73;;;1.53;;
7659;SDS011;3872;47.902;8.162;2024-03-17T01:41:38;4.83;;;1.50;;
7659;SDS011;3872;47.902;8.162;2024-03-17T01:44:04;4.93;;;1.80;;
7659;SDS011;3872;47.902;8.162;2024-03-17T01:46:31;4.00;;;1.40;;
7659;SDS011;3872;47.902;8.162;2024-03-17T01:48:58;5.60;;;1.70;;
7659;SDS011;3872;47.902;8.162;2024-03-17T01:51:24;4.60;;;1.50;;
7659;SDS011;3872;47.902;8.162;2024-03-17T01:53:50;7.17;;;1.90;;
7659;SDS011;3872;47.902;8.162;2024-03-17T01:56:17;3.60;;;1.40;;
7659;SDS011;3872;47.902;8.162;2024-03-17T01:58:44;4.17;;;1.40;;
7659;SDS011;3872;47.902;8.162;2024-03-17T02:01:11;4.03;;;1.43;;
7659;SDS011;3872;47.902;8.162;2024-03-17T02:03:41;3.80;;;1.13;;
7659;SDS011;3872;47.902;8.162;2024-03-17T02:06:09;5.80;;;1.67;;
7659;SDS011;3872;47.902;8.162;2024-03-17T02:08:47;4.00;;;1.97;;
7659;SDS011;3872;47.902;8.162;2024-03-17T02:11:23;3.87;;;1.67;;
7659;SDS011;3872;47.902;8.162;2024-03-17T02:13:50;5.40;;;2.20;;
7659;SDS011;3872;47.902;8.162;2024-03-17T02:16:17;4.80;;;1.40;;
7659;SDS011;3872;47.902;8.162;2024-03-17T02:18:44;4.33;;;1.60;;
7659;SDS011;3872;47.902;8.162;2024-03-17T02:21:12;3.53;;;1.40;;
7659;SDS011;3872;47.902;8.162;2024-03-17T02:23:39;4.47;;;1.77;;
7659;SDS011;3872;47.902;8.162;2024-03-17T02:26:06;10.70;;;1.90;;
7659;SDS011;3872;47.902;8.162;2024-03-17T02:28:37;5.60;;;1.93;;
7659;SDS011;3872;47.902;8.162;2024-03-17T02:31:05;4.60;;;1.97;;
7659;SDS011;3872;47.902;8.162;2024-03-17T02:33:33;4.00;;;1.73;;
7659;SDS011;3872;47.902;8.162;2024-03-17T02:35:58;5.67;;;2.17;;
7659;SDS011;3872;47.902;8.162;2024-03-17T02:38:26;5.53;;;2.10;;
7659;SDS011;3872;47.902;8.162;2024-03-17T02:41:08;5.20;;;1.90;;
7659;SDS011;3872;47.902;8.162;2024-03-17T02:43:35;11.93;;;2.60;;
7659;SDS011;3872;47.902;8.162;2024-03-17T02:46:02;6.30;;;2.57;;
7659;SDS011;3872;47.902;8.162;2024-03-17T02:48:30;8.67;;;3.00;;
7659;SDS011;3872;47.902;8.162;2024-03-17T02:50:57;4.97;;;2.70;;
7659;SDS011;3872;47.902;8.162;2024-03-17T02:53:25;8.63;;;3.73;;
7659;SDS011;3872;47.902;8.162;2024-03-17T02:55:51;9.97;;;3.80;;
7659;SDS011;3872;47.902;8.162;2024-03-17T02:58:19;14.27;;;4.07;;
7659;SDS011;3872;47.902;8.162;2024-03-17T03:00:48;14.73;;;3.63;;
7659;SDS011;3872;47.902;8.162;2024-03-17T03:03:14;15.47;;;4.07;;
7659;SDS011;3872;47.902;8.162;2024-03-17T03:05:40;11.13;;;4.87;;
7659;SDS011;3872;47.902;8.162;2024-03-17T03:08:08;8.67;;;4.30;;
7659;SDS011;3872;47.902;8.162;2024-03-17T03:10:35;14.10;;;4.40;;
7659;SDS011;3872;47.902;8.162;2024-03-17T03:13:01;7.60;;;3.93;;
7659;SDS011;3872;47.902;8.162;2024-03-17T03:15:31;10.10;;;5.13;;
7659;SDS011;3872;47.902;8.162;2024-03-17T03:17:58;14.63;;;4.67;;
7659;SDS011;3872;47.902;8.162;2024-03-17T03:20:24;7.03;;;3.60;;
7659;SDS011;3872;47.902;8.162;2024-03-17T03:22:51;7.27;;;4.37;;
7659;SDS011;3872;47.902;8.162;2024-03-17T03:25:17;9.10;;;3.80;;
7659;SDS011;3872;47.902;8.162;2024-03-17T03:27:44;8.97;;;3.80;;
7659;SDS011;3872;47.902;8.162;2024-03-17T03:30:11;8.93;;;3.63;;
7659;SDS011;3872;47.902;8.162;2024-03-17T03:32:40;7.63;;;4.00;;
7659;SDS011;3872;47.902;8.162;2024-03-17T03:35:07;10.63;;;3.97;;
7659;SDS011;3872;47.902;8.162;2024-03-17T03:37:34;8.20;;;3.60;;
7659;SDS011;3872;47.902;8.162;2024-03-17T03:40:01;10.80;;;4.07;;
7659;SDS011;3872;47.902;8.162;2024-03-17T03:42:33;9.23;;;3.57;;
7659;SDS011;3872;47.902;8.162;2024-03-17T03:44:59;11.07;;;3.90;;
7659;SDS011;3872;47.902;8.162;2024-03-17T03:47:26;6.47;;;3.23;;
7659;SDS011;3872;47.902;8.162;2024-03-17T03:49:54;6.57;;;3.33;;
7659;SDS011;3872;47.902;8.162;2024-03-17T03:52:20;6.50;;;3.20;;
7659;SDS011;3872;47.902;8.162;2024-03-17T03:54:50;6.50;;;3.17;;
7659;SDS011;3872;47.902;8.162;2024-03-17T03:57:17;11.67;;;3.53;;
7659;SDS011;3872;47.902;8.162;2024-03-17T03:59:44;9.37;;;3.70;;
7659;SDS011;3872;47.902;8.162;2024-03-17T04:02:10;8.67;;;3.03;;
7659;SDS011;3872;47.902;8.162;2024-03-17T04:04:37;7.03;;;3.60;;
7659;SDS011;3872;47.902;8.162;2024-03-17T04:07:05;7.97;;;4.00;;
7659;SDS011;3872;47.902;8.162;2024-03-17T04:09:33;6.27;;;3.33;;
7659;SDS011;3872;47.902;8.162;2024-03-17T04:11:59;8.80;;;4.40;;
7659;SDS011;3872;47.902;8.162;2024-03-17T04:14:27;12.47;;;4.33;;
7659;SDS011;3872;47.902;8.162;2024-03-17T04:16:57;7.50;;;3.60;;
7659;SDS011;3872;47.902;8.162;2024-03-17T04:19:24;13.23;;;3.80;;
7659;SDS011;3872;47.902;8.162;2024-03-17T04:21:51;6.80;;;4.00;;
7659;SDS011;3872;47.902;8.162;2024-03-17T04:24:19;11.43;;;4.40;;
7659;SDS011;3872;47.902;8.162;2024-03-17T04:26:47;10.70;;;3.93;;
7659;SDS011;3872;47.902;8.162;2024-03-17T04:29:14;7.03;;;3.67;;
7659;SDS011;3872;47.902;8.162;2024-03-17T04:31:41;6.47;;;3.37;;
7659;SDS011;3872;47.902;8.162;2024-03-17T04:34:08;7.83;;;4.17;;
7659;SDS011;3872;47.902;8.162;2024-03-17T04:36:35;8.23;;;4.00;;
7659;SDS011;3872;47.902;8.162;2024-03-17T04:39:01;8.40;;;3.87;;
7659;SDS011;3872;47.902;8.162;2024-03-17T04:41:30;15.37;;;3.90;;
7659;SDS011;3872;47.902;8.162;2024-03-17T04:43:56;8.07;;;3.80;;
7659;SDS011;3872;47.902;8.162;2024-03-17T04:46:23;7.60;;;3.53;;
7659;SDS011;3872;47.902;8.162;2024-03-17T04:48:51;8.00;;;3.70;;
7659;SDS011;3872;47.902;8.162;2024-03-17T04:51:18;7.53;;;3.67;;
7659;SDS011;3872;47.902;8.162;2024-03-17T04:53:44;6.80;;;3.27;;
7659;SDS011;3872;47.902;8.162;2024-03-17T04:56:11;11.23;;;4.83;;
7659;SDS011;3872;47.902;8.162;2024-03-17T04:58:39;9.80;;;4.70;;
7659;SDS011;3872;47.902;8.162;2024-03-17T05:01:06;15.13;;;5.70;;
7659;SDS011;3872;47.902;8.162;2024-03-17T05:03:33;9.50;;;4.33;;
7659;SDS011;3872;47.902;8.162;2024-03-17T05:06:02;6.70;;;3.67;;
7659;SDS011;3872;47.902;8.162;2024-03-17T05:08:30;8.60;;;4.10;;
7659;SDS011;3872;47.902;8.162;2024-03-17T05:10:58;7.73;;;3.80;;
7659;SDS011;3872;47.902;8.162;2024-03-17T05:13:25;9.13;;;4.60;;
7659;SDS011;3872;47.902;8.162;2024-03-17T05:15:55;7.43;;;3.63;;
7659;SDS011;3872;47.902;8.162;2024-03-17T05:18:22;7.50;;;3.63;;
7659;SDS011;3872;47.902;8.162;2024-03-17T05:20:57;8.50;;;3.60;;
7659;SDS011;3872;47.902;8.162;2024-03-17T05:23:25;7.27;;;4.00;;
7659;SDS011;3872;47.902;8.162;2024-03-17T05:25:54;7.13;;;3.87;;
7659;SDS011;3872;47.902;8.162;2024-03-17T05:28:21;7.50;;;3.60;;
7659;SDS011;3872;47.902;8.162;2024-03-17T05:30:48;7.30;;;4.47;;
7659;SDS011;3872;47.902;8.162;2024-03-17T05:33:17;9.60;;;4.37;;
7659;SDS011;3872;47.902;8.162;2024-03-17T05:35:48;7.07;;;3.37;;
7659;SDS011;3872;47.902;8.162;2024-03-17T05:38:17;12.17;;;4.20;;
7659;SDS011;3872;47.902;8.162;2024-03-17T05:40:51;14.30;;;3.80;;
7659;SDS011;3872;47.902;8.162;2024-03-17T05:43:20;6.23;;;3.47;;
7659;SDS011;3872;47.902;8.162;2024-03-17T05:45:47;7.27;;;3.93;;
7659;SDS011;3872;47.902;8.162;2024-03-17T05:48:14;24.77;;;4.67;;
7659;SDS011;3872;47.902;8.162;2024-03-17T05:50:42;8.70;;;3.83;;
7659;SDS011;3872;47.902;8.162;2024-03-17T05:53:08;8.60;;;3.57;;
7659;SDS011;3872;47.902;8.162;2024-03-17T05:55:35;7.00;;;3.40;;
7659;SDS011;3872;47.902;8.162;2024-03-17T05:58:02;7.57;;;3.60;;
7659;SDS011;3872;47.902;8.162;2024-03-17T06:00:28;9.90;;;3.40;;
7659;SDS011;3872;47.902;8.162;2024-03-17T06:02:56;26.83;;;3.93;;
7659;SDS011;3872;47.902;8.162;2024-03-17T06:05:23;90.00;;;7.17;;
7659;SDS011;3872;47.902;8.162;2024-03-17T06:07:51;37.20;;;4.60;;
7659;SDS011;3872;47.902;8.162;2024-03-17T06:10:18;63.20;;;5.37;;
7659;SDS011;3872;47.902;8.162;2024-03-17T06:12:49;38.67;;;4.73;;
7659;SDS011;3872;47.902;8.162;2024-03-17T06:15:16;110.43;;;7.50;;
7659;SDS011;3872;47.902;8.162;2024-03-17T06:17:43;122.70;;;7.73;;
7659;SDS011;3872;47.902;8.162;2024-03-17T06:20:10;53.60;;;5.70;;
7659;SDS011;3872;47.902;8.162;2024-03-17T06:22:38;30.97;;;3.90;;
7659;SDS011;3872;47.902;8.162;2024-03-17T06:25:07;4.23;;;2.13;;
7659;SDS011;3872;47.902;8.162;2024-03-17T06:27:34;5.53;;;3.30;;
7659;SDS011;3872;47.902;8.162;2024-03-17T06:30:01;30.30;;;3.97;;
7659;SDS011;3872;47.902;8.162;2024-03-17T06:32:29;114.23;;;7.37;;
7659;SDS011;3872;47.902;8.162;2024-03-17T06:34:56;39.27;;;3.23;;
7659;SDS011;3872;47.902;8.162;2024-03-17T06:37:23;77.33;;;4.30;;
7659;SDS011;3872;47.902;8.162;2024-03-17T06:39:50;38.63;;;4.23;;
7659;SDS011;3872;47.902;8.162;2024-03-17T06:42:18;29.50;;;2.70;;
7659;SDS011;3872;47.902;8.162;2024-03-17T06:44:44;94.03;;;6.23;;
7659;SDS011;3872;47.902;8.162;2024-03-17T06:47:11;53.57;;;4.43;;
7659;SDS011;3872;47.902;8.162;2024-03-17T06:49:38;18.93;;;2.80;;
7659;SDS011;3872;47.902;8.162;2024-03-17T06:52:05;122.23;;;8.37;;
7659;SDS011;3872;47.902;8.162;2024-03-17T06:54:31;37.27;;;3.63;;
7659;SDS011;3872;47.902;8.162;2024-03-17T06:56:59;43.57;;;4.10;;
7659;SDS011;3872;47.902;8.162;2024-03-17T06:59:27;14.10;;;2.33;;
7659;SDS011;3872;47.902;8.162;2024-03-17T07:01:54;77.27;;;5.67;;
7659;SDS011;3872;47.902;8.162;2024-03-17T07:04:21;15.57;;;2.70;;
7659;SDS011;3872;47.902;8.162;2024-03-17T07:06:49;12.83;;;2.60;;
7659;SDS011;3872;47.902;8.162;2024-03-17T07:09:15;44.73;;;4.60;;
7659;SDS011;3872;47.902;8.162;2024-03-17T07:11:43;52.20;;;5.23;;
7659;SDS011;3872;47.902;8.162;2024-03-17T07:14:10;109.37;;;5.60;;
7659;SDS011;3872;47.902;8.162;2024-03-17T07:16:38;9.20;;;2.87;;
7659;SDS011;3872;47.902;8.162;2024-03-17T07:19:05;29.33;;;3.50;;
7659;SDS011;3872;47.902;8.162;2024-03-17T07:21:31;12.97;;;3.00;;
7659;SDS011;3872;47.902;8.162;2024-03-17T07:23:58;45.00;;;3.97;;
7659;SDS011;3872;47.902;8.162;2024-03-17T07:26:29;63.07;;;4.57;;
7659;SDS011;3872;47.902;8.162;2024-03-17T07:28:59;26.10;;;2.53;;
7659;SDS011;3872;47.902;8.162;2024-03-17T07:31:25;97.77;;;5.43;;
7659;SDS011;3872;47.902;8.162;2024-03-17T07:33:54;9.97;;;2.87;;
7659;SDS011;3872;47.902;8.162;2024-03-17T07:36:20;24.90;;;2.77;;
7659;SDS011;3872;47.902;8.162;2024-03-17T07:38:47;18.07;;;2.27;;
7659;SDS011;3872;47.902;8.162;2024-03-17T07:41:14;24.73;;;2.83;;
7659;SDS011;3872;47.902;8.162;2024-03-17T07:43:40;12.00;;;2.23;;
7659;SDS011;3872;47.902;8.162;2024-03-17T07:46:07;4.50;;;1.73;;
7659;SDS011;3872;47.902;8.162;2024-03-17T07:48:36;9.00;;;2.40;;
7659;SDS011;3872;47.902;8.162;2024-03-17T07:51:06;4.10;;;1.90;;
7659;SDS011;3872;47.902;8.162;2024-03-17T07:53:35;4.67;;;2.23;;
7659;SDS011;3872;47.902;8.162;2024-03-17T07:56:04;4.10;;;1.97;;
7659;SDS011;3872;47.902;8.162;2024-03-17T07:58:33;5.03;;;1.80;;
7659;SDS011;3872;47.902;8.162;2024-03-17T08:01:02;3.70;;;1.50;;
7659;SDS011;3872;47.902;8.162;2024-03-17T08:03:30;3.70;;;1.57;;
7659;SDS011;3872;47.902;8.162;2024-03-17T08:05:58;3.80;;;1.50;;
7659;SDS011;3872;47.902;8.162;2024-03-17T08:08:26;4.37;;;2.23;;
7659;SDS011;3872;47.902;8.162;2024-03-17T08:10:53;4.00;;;1.47;;
7659;SDS011;3872;47.902;8.162;2024-03-17T08:13:20;8.87;;;1.70;;
7659;SDS011;3872;47.902;8.162;2024-03-17T08:15:55;3.93;;;1.60;;
7659;SDS011;3872;47.902;8.162;2024-03-17T08:18:22;4.10;;;1.60;;
7659;SDS011;3872;47.902;8.162;2024-03-17T08:20:48;4.63;;;1.70;;
7659;SDS011;3872;47.902;8.162;2024-03-17T08:23:15;5.03;;;1.83;;
7659;SDS011;3872;47.902;8.162;2024-03-17T08:25:46;3.70;;;1.67;;
7659;SDS011;3872;47.902;8.162;2024-03-17T08:28:19;4.40;;;2.00;;
7659;SDS011;3872;47.902;8.162;2024-03-17T08:30:50;5.57;;;2.27;;
7659;SDS011;3872;47.902;8.162;2024-03-17T08:33:17;4.57;;;1.97;;
7659;SDS011;3872;47.902;8.162;2024-03-17T08:35:51;5.23;;;2.10;;
7659;SDS011;3872;47.902;8.162;2024-03-17T08:38:18;5.40;;;1.50;;
7659;SDS011;3872;47.902;8.162;2024-03-17T08:40:46;4.90;;;1.60;;
7659;SDS011;3872;47.902;8.162;2024-03-17T08:43:14;4.13;;;1.33;;
7659;SDS011;3872;47.902;8.162;2024-03-17T08:45:41;7.80;;;1.50;;
7659;SDS011;3872;47.902;8.162;2024-03-17T08:48:08;6.03;;;0.80;;
7659;SDS011;3872;47.902;8.162;2024-03-17T08:50:35;3.40;;;0.80;;
7659;SDS011;3872;47.902;8.162;2024-03-17T08:53:02;5.30;;;0.93;;
7659;SDS011;3872;47.902;8.162;2024-03-17T08:55:28;7.03;;;1.13;;
7659;SDS011;3872;47.902;8.162;2024-03-17T08:57:56;11.13;;;1.87;;
7659;SDS011;3872;47.902;8.162;2024-03-17T09:00:23;6.53;;;1.13;;
7659;SDS011;3872;47.902;8.162;2024-03-17T09:02:50;6.07;;;1.20;;
7659;SDS011;3872;47.902;8.162;2024-03-17T09:05:17;4.70;;;1.00;;
7659;SDS011;3872;47.902;8.162;2024-03-17T09:07:43;5.83;;;1.30;;
7659;SDS011;3872;47.902;8.162;2024-03-17T09:10:10;7.60;;;1.30;;
7659;SDS011;3872;47.902;8.162;2024-03-17T09:12:38;5.93;;;0.90;;
7659;SDS011;3872;47.902;8.162;2024-03-17T09:15:07;3.60;;;1.10;;
7659;SDS011;3872;47.902;8.162;2024-03-17T09:17:37;4.73;;;1.23;;
7659;SDS011;3872;47.902;8.162;2024-03-17T09:20:05;10.57;;;1.57;;
7659;SDS011;3872;47.902;8.162;2024-03-17T09:22:36;4.53;;;0.93;;
7659;SDS011;3872;47.902;8.162;2024-03-17T09:25:05;5.40;;;1.50;;
7659;SDS011;3872;47.902;8.162;2024-03-17T09:27:32;11.37;;;1.50;;
7659;SDS011;3872;47.902;8.162;2024-03-17T09:30:00;5.30;;;0.93;;
7659;SDS011;3872;47.902;8.162;2024-03-17T09:32:28;6.40;;;1.07;;
7659;SDS011;3872;47.902;8.162;2024-03-17T09:34:55;13.10;;;1.20;;
7659;SDS011;3872;47.902;8.162;2024-03-17T09:37:21;5.87;;;1.00;;
7659;SDS011;3872;47.902;8.162;2024-03-17T09:39:48;4.83;;;0.90;;
7659;SDS011;3872;47.902;8.162;2024-03-17T09:42:16;6.60;;;1.03;;
7659;SDS011;3872;47.902;8.162;2024-03-17T09:44:45;4.67;;;1.10;;
7659;SDS011;3872;47.902;8.162;2024-03-17T09:47:14;3.93;;;0.70;;
7659;SDS011;3872;47.902;8.162;2024-03-17T09:49:47;3.70;;;0.77;;
7659;SDS011;3872;47.902;8.162;2024-03-17T09:52:17;6.47;;;1.20;;
7659;SDS011;3872;47.902;8.162;2024-03-17T09:54:48;7.13;;;0.83;;
7659;SDS011;3872;47.902;8.162;2024-03-17T09:57:19;4.73;;;0.90;;
7659;SDS011;3872;47.902;8.162;2024-03-17T09:59:52;5.23;;;0.63;;
7659;SDS011;3872;47.902;8.162;2024-03-17T10:02:20;7.80;;;1.50;;
7659;SDS011;3872;47.902;8.162;2024-03-17T10:04:49;5.63;;;1.17;;
7659;SDS011;3872;47.902;8.162;2024-03-17T10:07:15;9.53;;;1.20;;
7659;SDS011;3872;47.902;8.162;2024-03-17T10:09:42;6.23;;;1.30;;
7659;SDS011;3872;47.902;8.162;2024-03-17T10:12:26;4.10;;;1.10;;
7659;SDS011;3872;47.902;8.162;2024-03-17T10:15:00;10.50;;;1.00;;
7659;SDS011;3872;47.902;8.162;2024-03-17T10:17:30;10.03;;;1.30;;
7659;SDS011;3872;47.902;8.162;2024-03-17T10:20:14;8.30;;;1.20;;
7659;SDS011;3872;47.902;8.162;2024-03-17T10:23:01;3.80;;;0.90;;
7659;SDS011;3872;47.902;8.162;2024-03-17T10:25:29;3.97;;;0.77;;
7659;SDS011;3872;47.902;8.162;2024-03-17T10:27:56;3.90;;;1.10;;
7659;SDS011;3872;47.902;8.162;2024-03-17T10:30:23;4.13;;;0.83;;
7659;SDS011;3872;47.902;8.162;2024-03-17T10:32:55;4.87;;;1.10;;
7659;SDS011;3872;47.902;8.162;2024-03-17T10:35:33;5.30;;;1.27;;
7659;SDS011;3872;47.902;8.162;2024-03-17T10:38:05;6.80;;;1.40;;
7659;SDS011;3872;47.902;8.162;2024-03-17T10:40:33;8.90;;;0.87;;
7659;SDS011;3872;47.902;8.162;2024-03-17T10:43:03;5.23;;;1.00;;
7659;SDS011;3872;47.902;8.162;2024-03-17T10:45:30;6.43;;;1.10;;
7659;SDS011;3872;47.902;8.162;2024-03-17T10:48:02;4.50;;;1.10;;
7659;SDS011;3872;47.902;8.162;2024-03-17T10:50:32;4.73;;;1.10;;
7659;SDS011;3872;47.902;8.162;2024-03-17T10:53:03;6.30;;;1.00;;
7659;SDS011;3872;47.902;8.162;2024-03-17T10:55:37;6.53;;;1.10;;
7659;SDS011;3872;47.902;8.162;2024-03-17T10:58:13;4.33;;;0.90;;
7659;SDS011;3872;47.902;8.162;2024-03-17T11:00:50;5.00;;;0.80;;
7659;SDS011;3872;47.902;8.162;2024-03-17T11:03:18;6.90;;;1.20;;
7659;SDS011;3872;47.902;8.162;2024-03-17T11:05:46;8.37;;;1.10;;
7659;SDS011;3872;47.902;8.162;2024-03-17T11:08:15;3.60;;;0.90;;
7659;SDS011;3872;47.902;8.162;2024-03-17T11:10:48;5.00;;;0.80;;
7659;SDS011;3872;47.902;8.162;2024-03-17T11:13:24;4.77;;;1.30;;
7659;SDS011;3872;47.902;8.162;2024-03-17T11:15:52;4.27;;;0.87;;
7659;SDS011;3872;47.902;8.162;2024-03-17T11:21:07;9.97;;;1.30;;
7659;SDS011;3872;47.902;8.162;2024-03-17T11:23:56;6.57;;;1.30;;
7659;SDS011;3872;47.902;8.162;2024-03-17T11:26:31;6.73;;;1.60;;
7659;SDS011;3872;47.902;8.162;2024-03-17T11:28:59;9.63;;;1.23;;
7659;SDS011;3872;47.902;8.162;2024-03-17T11:31:32;4.17;;;0.80;;
7659;SDS011;3872;47.902;8.162;2024-03-17T11:34:26;5.20;;;0.90;;
7659;SDS011;3872;47.902;8.162;2024-03-17T11:36:59;3.90;;;0.80;;
7659;SDS011;3872;47.902;8.162;2024-03-17T11:42:16;5.27;;;1.30;;
7659;SDS011;3872;47.902;8.162;2024-03-17T11:44:43;3.70;;;1.00;;
7659;SDS011;3872;47.902;8.162;2024-03-17T11:47:19;4.30;;;1.10;;
7659;SDS011;3872;47.902;8.162;2024-03-17T11:49:46;3.53;;;0.80;;
7659;SDS011;3872;47.902;8.162;2024-03-17T11:52:15;5.60;;;1.70;;
7659;SDS011;3872;47.902;8.162;2024-03-17T11:54:42;4.83;;;0.70;;
7659;SDS011;3872;47.902;8.162;2024-03-17T11:57:12;5.10;;;0.97;;
7659;SDS011;3872;47.902;8.162;2024-03-17T11:59:38;6.93;;;1.20;;
7659;SDS011;3872;47.902;8.162;2024-03-17T12:02:09;8.43;;;0.90;;
7659;SDS011;3872;47.902;8.162;2024-03-17T12:04:41;7.70;;;0.93;;
7659;SDS011;3872;47.902;8.162;2024-03-17T12:07:09;5.10;;;0.87;;
7659;SDS011;3872;47.902;8.162;2024-03-17T12:09:40;4.07;;;0.87;;
7659;SDS011;3872;47.902;8.162;2024-03-17T12:12:08;4.50;;;0.90;;
7659;SDS011;3872;47.902;8.162;2024-03-17T12:14:35;5.30;;;1.07;;
7659;SDS011;3872;47.902;8.162;2024-03-17T12:17:03;4.07;;;0.97;;
7659;SDS011;3872;47.902;8.162;2024-03-17T12:19:30;6.30;;;0.80;;
7659;SDS011;3872;47.902;8.162;2024-03-17T12:21:57;3.67;;;0.83;;
7659;SDS011;3872;47.902;8.162;2024-03-17T12:24:25;7.87;;;0.80;;
7659;SDS011;3872;47.902;8.162;2024-03-17T12:26:54;4.37;;;0.80;;
7659;SDS011;3872;47.902;8.162;2024-03-17T12:29:25;4.67;;;1.17;;
7659;SDS011;3872;47.902;8.162;2024-03-17T12:31:53;4.00;;;1.20;;
7659;SDS011;3872;47.902;8.162;2024-03-17T12:34:20;8.57;;;0.90;;
7659;SDS011;3872;47.902;8.162;2024-03-17T12:36:46;3.27;;;0.60;;
7659;SDS011;3872;47.902;8.162;2024-03-17T12:39:18;5.33;;;0.87;;
7659;SDS011;3872;47.902;8.162;2024-03-17T12:41:44;4.40;;;0.80;;
7659;SDS011;3872;47.902;8.162;2024-03-17T12:44:22;5.77;;;0.90;;
7659;SDS011;3872;47.902;8.162;2024-03-17T12:46:47;5.83;;;1.20;;
7659;SDS011;3872;47.902;8.162;2024-03-17T12:49:14;3.97;;;0.90;;
7659;SDS011;3872;47.902;8.162;2024-03-17T12:51:40;6.77;;;1.00;;
7659;SDS011;3872;47.902;8.162;2024-03-17T12:54:13;11.70;;;1.40;;
7659;SDS011;3872;47.902;8.162;2024-03-17T12:56:39;4.97;;;1.03;;
7659;SDS011;3872;47.902;8.162;2024-03-17T12:59:25;5.30;;;0.87;;
7659;SDS011;3872;47.902;8.162;2024-03-17T13:02:20;4.10;;;0.80;;
7659;SDS011;3872;47.902;8.162;2024-03-17T13:05:04;3.80;;;0.70;;
7659;SDS011;3872;47.902;8.162;2024-03-17T13:07:31;5.23;;;0.90;;
7659;SDS011;3872;47.902;8.162;2024-03-17T13:09:58;3.70;;;1.00;;
7659;SDS011;3872;47.902;8.162;2024-03-17T13:12:25;4.73;;;0.97;;
7659;SDS011;3872;47.902;8.162;2024-03-17T13:14:53;7.23;;;0.97;;
7659;SDS011;3872;47.902;8.162;2024-03-17T13:17:20;7.83;;;0.87;;
7659;SDS011;3872;47.902;8.162;2024-03-17T13:19:47;3.40;;;0.70;;
7659;SDS011;3872;47.902;8.162;2024-03-17T13:22:14;4.60;;;0.87;;
7659;SDS011;3872;47.902;8.162;2024-03-17T13:24:41;7.27;;;1.50;;
7659;SDS011;3872;47.902;8.162;2024-03-17T13:27:07;4.60;;;0.90;;
7659;SDS011;3872;47.902;8.162;2024-03-17T13:29:34;5.00;;;1.10;;
7659;SDS011;3872;47.902;8.162;2024-03-17T13:32:04;5.00;;;0.90;;
7659;SDS011;3872;47.902;8.162;2024-03-17T13:34:31;6.33;;;1.27;;
7659;SDS011;3872;47.902;8.162;2024-03-17T13:36:58;5.20;;;0.90;;
7659;SDS011;3872;47.902;8.162;2024-03-17T13:39:28;6.00;;;0.90;;
7659;SDS011;3872;47.902;8.162;2024-03-17T13:41:56;6.23;;;0.87;;
7659;SDS011;3872;47.902;8.162;2024-03-17T13:44:28;5.93;;;0.77;;
7659;SDS011;3872;47.902;8.162;2024-03-17T13:46:56;7.73;;;1.00;;
7659;SDS011;3872;47.902;8.162;2024-03-17T13:49:24;6.03;;;1.00;;
7659;SDS011;3872;47.902;8.162;2024-03-17T13:51:51;6.27;;;0.90;;
7659;SDS011;3872;47.902;8.162;2024-03-17T13:54:19;3.70;;;0.90;;
7659;SDS011;3872;47.902;8.162;2024-03-17T13:56:46;6.37;;;1.60;;
7659;SDS011;3872;47.902;8.162;2024-03-17T13:59:13;7.30;;;1.17;;
7659;SDS011;3872;47.902;8.162;2024-03-17T14:01:40;4.47;;;1.17;;
7659;SDS011;3872;47.902;8.162;2024-03-17T14:04:10;4.43;;;0.87;;
7659;SDS011;3872;47.902;8.162;2024-03-17T14:06:41;5.50;;;1.20;;
7659;SDS011;3872;47.902;8.162;2024-03-17T14:09:08;5.20;;;0.90;;
7659;SDS011;3872;47.902;8.162;2024-03-17T14:11:35;5.40;;;1.40;;
7659;SDS011;3872;47.902;8.162;2024-03-17T14:14:03;5.53;;;1.27;;
7659;SDS011;3872;47.902;8.162;2024-03-17T14:16:30;3.90;;;0.80;;
7659;SDS011;3872;47.902;8.162;2024-03-17T14:18:58;4.67;;;1.33;;
7659;SDS011;3872;47.902;8.162;2024-03-17T14:21:24;6.47;;;1.27;;
7659;SDS011;3872;47.902;8.162;2024-03-17T14:23:52;3.90;;;1.00;;
7659;SDS011;3872;47.902;8.162;2024-03-17T14:26:21;4.93;;;1.00;;
7659;SDS011;3872;47.902;8.162;2024-03-17T14:28:48;9.10;;;0.97;;
7659;SDS011;3872;47.902;8.162;2024-03-17T14:31:15;7.00;;;1.10;;
7659;SDS011;3872;47.902;8.162;2024-03-17T14:33:42;4.27;;;0.83;;
7659;SDS011;3872;47.902;8.162;2024-03-17T14:36:09;8.47;;;1.27;;
7659;SDS011;3872;47.902;8.162;2024-03-17T14:38:36;4.93;;;1.20;;
7659;SDS011;3872;47.902;8.162;2024-03-17T14:41:04;4.20;;;1.03;;
7659;SDS011;3872;47.902;8.162;2024-03-17T14:43:31;3.70;;;0.90;;
7659;SDS011;3872;47.902;8.162;2024-03-17T14:45:57;4.70;;;1.00;;
7659;SDS011;3872;47.902;8.162;2024-03-17T14:48:24;6.60;;;1.67;;
7659;SDS011;3872;47.902;8.162;2024-03-17T14:50:51;6.50;;;1.00;;
7659;SDS011;3872;47.902;8.162;2024-03-17T14:53:17;6.07;;;0.90;;
7659;SDS011;3872;47.902;8.162;2024-03-17T14:55:45;3.80;;;0.90;;
7659;SDS011;3872;47.902;8.162;2024-03-17T14:58:14;5.00;;;0.77;;
7659;SDS011;3872;47.902;8.162;2024-03-17T15:00:40;4.20;;;0.93;;
7659;SDS011;3872;47.902;8.162;2024-03-17T15:03:07;6.87;;;1.00;;
7659;SDS011;3872;47.902;8.162;2024-03-17T15:05:35;4.37;;;0.80;;
7659;SDS011;3872;47.902;8.162;2024-03-17T15:08:01;6.33;;;1.50;;
7659;SDS011;3872;47.902;8.162;2024-03-17T15:10:28;6.50;;;1.50;;
7659;SDS011;3872;47.902;8.162;2024-03-17T15:12:54;5.00;;;1.00;;
7659;SDS011;3872;47.902;8.162;2024-03-17T15:15:23;4.53;;;1.00;;
7659;SDS011;3872;47.902;8.162;2024-03-17T15:17:50;10.23;;;1.63;;
7659;SDS011;3872;47.902;8.162;2024-03-17T15:20:16;4.13;;;1.27;;
7659;SDS011;3872;47.902;8.162;2024-03-17T15:22:44;9.00;;;0.90;;
7659;SDS011;3872;47.902;8.162;2024-03-17T15:25:12;3.60;;;1.00;;